createdAt,value
2022-08-19T00:02:05.895Z,18.80
2022-08-19T00:07:08.263Z,18.80
2022-08-19T00:12:11.316Z,18.80
2022-08-19T00:17:13.716Z,18.80
2022-08-19T00:22:18.374Z,18.80
2022-08-19T00:27:26.349Z,18.80
2022-08-19T00:32:28.941Z,18.80
2022-08-19T00:37:34.174Z,18.80
2022-08-19T00:42:36.458Z,18.80
2022-08-19T00:47:38.804Z,18.70
2022-08-19T00:52:46.489Z,18.70
2022-08-19T00:57:55.515Z,18.70
2022-08-19T01:02:57.980Z,18.70
2022-08-19T01:08:03.410Z,18.70
2022-08-19T01:13:06.297Z,18.60
2022-08-19T01:18:13.023Z,18.60
2022-08-19T01:23:15.897Z,18.60
2022-08-19T01:28:40.030Z,18.60
2022-08-19T01:33:44.093Z,18.60
2022-08-19T01:38:47.302Z,18.60
2022-08-19T01:44:13.954Z,18.60
2022-08-19T01:49:12.625Z,18.60
2022-08-19T01:54:23.107Z,18.60
2022-08-19T01:59:31.474Z,18.50
2022-08-19T02:04:33.827Z,18.50
2022-08-19T02:09:36.529Z,18.40
2022-08-19T02:14:38.880Z,18.40
2022-08-19T02:19:41.491Z,18.40
2022-08-19T02:24:43.671Z,18.40
2022-08-19T02:29:47.703Z,18.40
2022-08-19T02:34:50.325Z,18.40
2022-08-19T02:39:52.585Z,18.40
2022-08-19T02:44:57.063Z,18.40
2022-08-19T02:49:59.277Z,18.40
2022-08-19T02:55:02.123Z,18.40
2022-08-19T03:00:08.759Z,18.40
2022-08-19T03:05:11.653Z,18.40
2022-08-19T03:10:14.156Z,18.40
2022-08-19T03:15:16.649Z,18.40
2022-08-19T03:20:18.838Z,18.40
2022-08-19T03:25:21.056Z,18.40
2022-08-19T03:30:23.410Z,18.40
2022-08-19T03:35:26.095Z,18.40
2022-08-19T03:40:28.350Z,18.40
2022-08-19T03:45:30.785Z,18.40
2022-08-19T03:50:32.972Z,18.40
2022-08-19T03:55:35.507Z,18.40
2022-08-19T04:00:37.906Z,18.40
2022-08-19T04:05:40.132Z,18.40
2022-08-19T04:10:42.997Z,18.40
2022-08-19T04:15:47.838Z,18.50
2022-08-19T04:20:50.845Z,18.40
2022-08-19T04:25:52.986Z,18.40
2022-08-19T04:30:56.713Z,18.40
2022-08-19T04:35:59.403Z,18.50
2022-08-19T04:41:23.298Z,18.50
2022-08-19T04:46:40.087Z,18.50
2022-08-19T04:51:48.801Z,18.50
2022-08-19T04:56:52.949Z,18.50
2022-08-19T05:01:55.108Z,18.60
2022-08-19T05:07:00.751Z,18.50
2022-08-19T05:12:03.935Z,18.60
2022-08-19T05:17:26.130Z,18.60
2022-08-19T05:22:35.659Z,18.60
2022-08-19T05:27:38.040Z,18.60
2022-08-19T05:32:40.864Z,18.60
2022-08-19T05:37:43.016Z,18.60
2022-08-19T05:42:45.172Z,18.50
2022-08-19T05:47:57.513Z,18.50
2022-08-19T05:52:59.648Z,18.50
2022-08-19T05:58:02.800Z,18.50
2022-08-19T06:03:09.734Z,18.50
2022-08-19T06:08:15.272Z,18.50
2022-08-19T06:13:18.427Z,18.50
2022-08-19T06:18:20.758Z,18.50
2022-08-19T06:23:24.438Z,18.50
2022-08-19T06:28:26.629Z,18.50
2022-08-19T06:33:28.767Z,18.40
2022-08-19T06:38:34.452Z,18.40
2022-08-19T06:43:38.166Z,18.50
2022-08-19T06:48:45.728Z,18.40
2022-08-19T06:58:56.793Z,18.50
2022-08-19T07:03:58.943Z,18.60
2022-08-19T07:09:01.144Z,18.50
2022-08-19T07:14:03.412Z,18.50
2022-08-19T07:19:11.873Z,18.50
2022-08-19T07:24:20.827Z,18.60
2022-08-19T07:29:25.620Z,18.70
2022-08-19T07:34:31.762Z,18.70
2022-08-19T07:39:36.702Z,18.80
2022-08-19T07:49:46.392Z,18.80
2022-08-19T07:54:48.486Z,18.90
2022-08-19T07:59:50.610Z,18.80
2022-08-19T08:05:11.148Z,18.80
2022-08-19T08:10:21.038Z,18.80
2022-08-19T08:15:25.136Z,19.00
2022-08-19T08:20:27.322Z,19.10
2022-08-19T08:25:32.334Z,19.20
2022-08-19T08:30:36.925Z,19.20
2022-08-19T08:35:42.930Z,19.20
2022-08-19T08:40:50.887Z,19.20
2022-08-19T08:46:30.366Z,19.20
2022-08-19T08:51:38.279Z,19.20
2022-08-19T08:56:45.213Z,19.20
2022-08-19T09:01:47.631Z,19.10
2022-08-19T09:07:18.543Z,19.00
2022-08-19T09:12:57.103Z,18.60
2022-08-19T09:18:04.677Z,18.40
2022-08-19T09:23:10.485Z,18.40
2022-08-19T09:28:22.146Z,18.30
2022-08-19T09:33:24.879Z,18.30
2022-08-19T09:38:27.008Z,18.20
2022-08-19T09:43:33.793Z,18.20
2022-08-19T09:48:49.426Z,18.10
2022-08-19T09:53:54.675Z,18.00
2022-08-19T09:58:58.881Z,18.10
2022-08-19T10:04:06.372Z,18.10
2022-08-19T10:09:17.837Z,18.40
2022-08-19T10:14:36.119Z,18.40
2022-08-19T10:19:39.099Z,18.60
2022-08-19T10:24:42.347Z,18.70
2022-08-19T10:29:46.309Z,18.70
2022-08-19T10:34:50.224Z,18.90
2022-08-19T10:39:59.548Z,19.30
2022-08-19T10:45:02.491Z,19.50
2022-08-19T10:50:28.800Z,19.40
2022-08-19T10:55:51.076Z,19.40
2022-08-19T11:01:00.144Z,19.40
2022-08-19T11:06:05.525Z,19.70
2022-08-19T11:11:08.463Z,19.80
2022-08-19T11:16:15.183Z,20.00
2022-08-19T11:21:23.370Z,20.00
2022-08-19T11:26:27.452Z,20.00
2022-08-19T11:31:34.541Z,20.20
2022-08-19T11:36:40.327Z,20.30
2022-08-19T11:41:42.633Z,20.70
2022-08-19T11:46:47.427Z,20.90
2022-08-19T11:51:51.752Z,20.60
2022-08-19T11:56:57.154Z,20.60
2022-08-19T12:02:00.252Z,20.70
2022-08-19T12:07:02.906Z,21.20
2022-08-19T12:12:05.687Z,21.80
2022-08-19T12:17:09.815Z,22.00
2022-08-19T12:22:11.919Z,22.60
2022-08-19T12:27:14.125Z,22.50
2022-08-19T12:32:34.980Z,22.50
2022-08-19T12:37:37.330Z,22.20
2022-08-19T12:42:43.153Z,22.50
2022-08-19T12:47:47.625Z,22.30
2022-08-19T12:52:49.861Z,22.30
2022-08-19T12:57:52.299Z,22.60
2022-08-19T13:02:54.590Z,23.00
2022-08-19T13:07:58.905Z,23.00
2022-08-19T13:13:02.693Z,22.90
2022-08-19T13:18:05.065Z,22.70
2022-08-19T13:23:07.626Z,22.80
2022-08-19T13:28:09.816Z,23.50
2022-08-19T13:33:16.125Z,23.90
2022-08-19T13:38:22.241Z,23.80
2022-08-19T13:43:27.514Z,24.20
2022-08-19T13:48:29.874Z,24.40
2022-08-19T13:53:31.959Z,24.60
2022-08-19T13:58:34.724Z,24.10
2022-08-19T14:03:37.203Z,23.40
2022-08-19T14:08:46.087Z,23.30
2022-08-19T14:13:49.202Z,23.40
2022-08-19T14:18:51.483Z,23.60
2022-08-19T14:23:53.947Z,23.30
2022-08-19T14:28:58.828Z,23.10
2022-08-19T14:34:01.038Z,23.40
2022-08-19T14:39:03.758Z,23.30
2022-08-19T14:44:05.888Z,23.00
2022-08-19T14:49:09.305Z,23.10
2022-08-19T14:54:11.868Z,23.10
2022-08-19T14:59:14.018Z,23.10
2022-08-19T15:04:16.126Z,23.30
2022-08-19T15:09:18.347Z,23.40
2022-08-19T15:14:21.965Z,23.40
2022-08-19T15:19:24.790Z,23.30
2022-08-19T15:24:26.919Z,22.70
2022-08-19T15:29:29.394Z,22.70
2022-08-19T15:34:32.440Z,22.70
2022-08-19T15:39:34.743Z,22.90
2022-08-19T15:44:37.406Z,22.70
2022-08-19T15:49:39.591Z,23.40
2022-08-19T15:54:41.701Z,22.60
2022-08-19T16:00:03.100Z,21.80
2022-08-19T16:05:30.150Z,22.20
2022-08-19T16:10:32.596Z,22.30
2022-08-19T16:15:34.710Z,22.40
2022-08-19T16:20:36.940Z,22.70
2022-08-19T16:25:39.478Z,23.20
2022-08-19T16:30:42.951Z,23.40
2022-08-19T16:35:58.450Z,22.50
2022-08-19T16:41:02.916Z,22.50
2022-08-19T16:46:05.307Z,22.20
2022-08-19T16:51:08.645Z,22.30
2022-08-19T16:56:11.739Z,22.40
2022-08-19T17:01:14.700Z,22.50
2022-08-19T17:06:28.411Z,22.90
2022-08-19T17:11:34.192Z,23.50
2022-08-19T17:16:37.185Z,23.20
2022-08-19T17:21:40.706Z,22.50
2022-08-19T17:26:42.939Z,22.30
2022-08-19T17:31:45.257Z,22.00
2022-08-19T17:36:47.446Z,21.90
2022-08-19T17:41:50.045Z,22.00
2022-08-19T17:46:53.659Z,21.80
2022-08-19T17:51:55.924Z,21.60
2022-08-19T17:56:58.370Z,21.60
2022-08-19T18:02:00.655Z,21.70
2022-08-19T18:07:04.354Z,21.40
2022-08-19T18:12:08.307Z,21.20
2022-08-19T18:17:14.030Z,21.20
2022-08-19T18:22:30.840Z,21.00
2022-08-19T18:27:33.075Z,20.80
2022-08-19T18:32:38.859Z,20.60
2022-08-19T18:37:41.748Z,20.40
2022-08-19T18:43:04.060Z,20.30
2022-08-19T18:48:27.554Z,20.20
2022-08-19T18:53:33.923Z,20.10
2022-08-19T18:58:38.053Z,19.90
2022-08-19T19:03:45.319Z,19.70
2022-08-19T19:08:48.423Z,19.50
2022-08-19T19:13:50.663Z,19.40
2022-08-19T19:18:52.971Z,19.20
2022-08-19T19:23:55.947Z,19.00
2022-08-19T19:28:58.380Z,19.00
2022-08-19T19:34:01.752Z,18.80
2022-08-19T19:39:04.691Z,18.80
2022-08-19T19:44:29.987Z,18.90
2022-08-19T19:49:32.439Z,18.80
2022-08-19T19:54:36.632Z,18.70
2022-08-19T19:59:44.929Z,18.60
2022-08-19T20:04:58.814Z,18.60
2022-08-19T20:10:01.033Z,18.60
2022-08-19T20:15:04.931Z,18.60
2022-08-19T20:20:07.927Z,18.60
2022-08-19T20:25:15.378Z,18.50
2022-08-19T20:30:20.373Z,18.50
2022-08-19T20:35:23.352Z,18.40
2022-08-19T20:40:26.969Z,18.30
2022-08-19T20:45:32.482Z,18.20
2022-08-19T20:50:37.205Z,18.10
2022-08-19T20:55:39.852Z,17.90
2022-08-19T21:00:46.709Z,17.90
2022-08-19T21:05:49.514Z,17.80
2022-08-19T21:10:52.665Z,17.70
2022-08-19T21:15:55.355Z,17.60
2022-08-19T21:20:57.708Z,17.40
2022-08-19T21:26:01.276Z,17.10
2022-08-19T21:31:05.496Z,16.90
2022-08-19T21:36:08.210Z,16.70
2022-08-19T21:41:10.480Z,16.60
2022-08-19T21:46:12.718Z,16.50
2022-08-19T21:51:15.069Z,16.50
2022-08-19T21:56:19.101Z,16.30
2022-08-19T22:01:21.474Z,16.20
2022-08-19T22:06:26.068Z,16.20
2022-08-19T22:11:28.536Z,16.10
2022-08-19T22:16:30.751Z,16.00
2022-08-19T22:21:40.940Z,15.90
2022-08-19T22:26:43.475Z,15.90
2022-08-19T22:31:45.772Z,15.80
2022-08-19T22:36:57.435Z,15.70
2022-08-19T22:41:59.568Z,15.70
2022-08-19T22:47:02.344Z,15.60
2022-08-19T22:52:19.943Z,15.60
2022-08-19T22:57:22.843Z,15.60
2022-08-19T23:02:30.080Z,15.50
2022-08-19T23:07:32.651Z,15.40
2022-08-19T23:12:38.208Z,15.30
2022-08-19T23:17:43.309Z,15.20
2022-08-19T23:22:49.648Z,15.20
2022-08-19T23:28:11.230Z,15.20
2022-08-19T23:33:24.890Z,15.10
2022-08-19T23:38:29.165Z,15.00
2022-08-19T23:43:32.142Z,14.90
2022-08-19T23:48:36.930Z,14.80
2022-08-19T23:53:41.061Z,14.80
2022-08-19T23:58:43.253Z,14.70
